Russellville, Indiana
Current Conditions -  °F | °C
As of 12:15 PM on Sunday 21 Dec 2014 (Local Time) from K4I7 Reporting Station
Scattered Clouds Scattered Clouds  
Wind Chill: 26°   Ceiling: Unl
Heat Index: 32°   Visibility: 7mi
Dew Point: 27°   Wind: 7mph
Humidity: 80%   Direction: 140°SE
Pressure: 30.23"   Gusts: NA
Location:  39.86°N, 86.98°W
Report Text: K4I7 211715Z AUTO 14006KT 7SM SCT011 00/M03 A3023 RMK AO2
Loading
Personal Weather Stations






























Interactive Weather Map New forecast layout! Learn more

10-Day Weather Forecast

Advertisements
Track Severe Weather on mobile